createdAt,value
2023-03-07T00:00:03.652Z,85.00
2023-03-07T00:02:06.509Z,85.00
2023-03-07T00:04:09.805Z,85.20
2023-03-07T00:06:12.622Z,85.40
2023-03-07T00:08:15.335Z,85.10
2023-03-07T00:10:18.659Z,84.90
2023-03-07T00:12:22.298Z,84.90
2023-03-07T00:14:25.087Z,84.70
2023-03-07T00:16:29.229Z,84.90
2023-03-07T00:18:33.104Z,85.00
2023-03-07T00:20:35.912Z,85.00
2023-03-07T00:22:38.809Z,85.10
2023-03-07T00:24:41.623Z,85.00
2023-03-07T00:26:44.325Z,84.60
2023-03-07T00:28:48.180Z,84.70
2023-03-07T00:30:50.921Z,84.60
2023-03-07T00:32:55.796Z,84.50
2023-03-07T00:34:59.843Z,84.20
2023-03-07T00:37:02.621Z,84.20
2023-03-07T00:39:05.436Z,84.30
2023-03-07T00:41:10.048Z,84.40
2023-03-07T00:43:12.748Z,84.60
2023-03-07T00:45:15.587Z,84.60
2023-03-07T00:47:18.336Z,84.70
2023-03-07T00:49:22.408Z,84.30
2023-03-07T00:51:25.463Z,84.50
2023-03-07T00:53:28.466Z,84.30
2023-03-07T00:55:31.258Z,83.70
2023-03-07T00:57:34.003Z,83.80
2023-03-07T00:59:36.782Z,83.90
2023-03-07T01:01:39.708Z,83.90
2023-03-07T01:03:43.100Z,84.00
2023-03-07T01:05:47.747Z,83.70
2023-03-07T01:07:50.541Z,84.10
2023-03-07T01:09:53.560Z,84.50
2023-03-07T01:11:56.361Z,84.00
2023-03-07T01:14:00.480Z,84.00
2023-03-07T01:16:11.019Z,83.90
2023-03-07T01:18:13.985Z,83.80
2023-03-07T01:20:17.072Z,83.70
2023-03-07T01:22:21.159Z,84.00
2023-03-07T01:24:23.895Z,83.70
2023-03-07T01:26:28.957Z,83.70
2023-03-07T01:28:31.701Z,83.80
2023-03-07T01:30:35.073Z,83.70
2023-03-07T01:32:37.904Z,83.30
2023-03-07T01:34:41.076Z,83.50
2023-03-07T01:36:43.899Z,84.00
2023-03-07T01:38:48.384Z,83.80
2023-03-07T01:40:51.288Z,83.80
2023-03-07T01:42:54.054Z,84.30
2023-03-07T01:45:03.835Z,84.40
2023-03-07T01:47:06.686Z,84.90
2023-03-07T01:49:12.940Z,85.10
2023-03-07T01:51:16.154Z,85.40
2023-03-07T01:53:19.012Z,85.00
2023-03-07T01:55:26.483Z,85.20
2023-03-07T01:57:33.658Z,85.30
2023-03-07T01:59:41.528Z,85.50
2023-03-07T02:01:44.486Z,85.40
2023-03-07T02:03:51.679Z,85.60
2023-03-07T02:05:57.869Z,86.10
2023-03-07T02:08:10.537Z,86.10
2023-03-07T02:10:15.171Z,86.30
2023-03-07T02:12:19.642Z,86.10
2023-03-07T02:14:23.393Z,86.40
2023-03-07T02:16:26.643Z,86.30
2023-03-07T02:18:33.022Z,86.10
2023-03-07T02:20:45.696Z,86.20
2023-03-07T02:22:49.648Z,85.90
2023-03-07T02:24:56.145Z,86.30
2023-03-07T02:27:00.463Z,86.60
2023-03-07T02:29:04.116Z,86.40
2023-03-07T02:31:08.315Z,86.10
2023-03-07T02:33:11.086Z,86.20
2023-03-07T02:35:16.356Z,86.30
2023-03-07T02:37:23.634Z,86.60
2023-03-07T02:39:30.116Z,86.50
2023-03-07T02:41:34.963Z,86.30
2023-03-07T02:43:39.161Z,86.10
2023-03-07T02:45:41.900Z,86.30
2023-03-07T02:47:44.987Z,86.40
2023-03-07T02:49:47.695Z,86.50
2023-03-07T02:51:50.446Z,86.50
2023-03-07T02:53:53.275Z,86.50
2023-03-07T02:55:56.229Z,86.40
2023-03-07T02:57:59.133Z,86.70
2023-03-07T03:00:05.132Z,86.70
2023-03-07T03:02:08.212Z,86.70
2023-03-07T03:04:10.952Z,86.40
2023-03-07T03:06:13.791Z,86.50
2023-03-07T03:08:16.616Z,86.40
2023-03-07T03:10:19.619Z,87.50
2023-03-07T03:12:22.367Z,87.00
2023-03-07T03:14:25.300Z,87.50
2023-03-07T03:16:29.394Z,87.10
2023-03-07T03:18:32.569Z,87.00
2023-03-07T03:20:35.368Z,87.00
2023-03-07T03:22:38.444Z,87.00
2023-03-07T03:24:41.640Z,87.00
2023-03-07T03:26:44.391Z,87.00
2023-03-07T03:28:49.472Z,87.10
2023-03-07T03:30:59.088Z,87.00
2023-03-07T03:33:03.293Z,87.30
2023-03-07T03:35:06.888Z,87.20
2023-03-07T03:37:09.630Z,87.10
2023-03-07T03:39:12.388Z,87.90
2023-03-07T03:41:16.897Z,87.40
2023-03-07T03:43:19.911Z,87.00
2023-03-07T03:45:22.602Z,86.90
2023-03-07T03:47:25.429Z,87.00
2023-03-07T03:49:29.515Z,87.20
2023-03-07T03:51:33.261Z,87.20
2023-03-07T03:53:37.584Z,87.10
2023-03-07T03:55:40.317Z,87.10
2023-03-07T03:57:43.093Z,87.20
2023-03-07T03:59:46.399Z,87.30
2023-03-07T04:01:49.557Z,87.60
2023-03-07T04:03:53.900Z,88.10
2023-03-07T04:06:03.015Z,87.90
2023-03-07T04:08:05.867Z,87.80
2023-03-07T04:10:09.664Z,87.90
2023-03-07T04:12:12.434Z,87.90
2023-03-07T04:14:15.253Z,88.10
2023-03-07T04:16:18.887Z,87.90
2023-03-07T04:18:22.609Z,87.90
2023-03-07T04:20:25.341Z,87.80
2023-03-07T04:22:29.407Z,87.80
2023-03-07T04:24:32.222Z,87.80
2023-03-07T04:26:35.748Z,87.50
2023-03-07T04:28:46.204Z,87.30
2023-03-07T04:30:49.767Z,88.20
2023-03-07T04:32:52.565Z,87.20
2023-03-07T04:34:55.323Z,87.20
2023-03-07T04:36:58.088Z,87.60
2023-03-07T04:39:02.303Z,87.70
2023-03-07T04:41:05.332Z,87.70
2023-03-07T04:43:08.405Z,87.80
2023-03-07T04:45:11.998Z,87.40
2023-03-07T04:47:14.776Z,87.30
2023-03-07T04:49:17.585Z,87.80
2023-03-07T04:51:20.334Z,87.70
2023-03-07T04:53:23.261Z,87.30
2023-03-07T04:55:27.486Z,87.50
2023-03-07T04:57:30.249Z,87.20
2023-03-07T04:59:33.202Z,86.70
2023-03-07T05:01:36.044Z,87.30
2023-03-07T05:03:38.883Z,87.50
2023-03-07T05:05:42.057Z,87.30
2023-03-07T05:07:44.893Z,87.50
2023-03-07T05:09:47.621Z,87.40
2023-03-07T05:11:53.597Z,87.40
2023-03-07T05:13:56.442Z,87.30
2023-03-07T05:16:00.420Z,86.90
2023-03-07T05:18:03.440Z,86.90
2023-03-07T05:20:09.972Z,87.20
2023-03-07T05:22:12.684Z,87.50
2023-03-07T05:24:15.703Z,87.10
2023-03-07T05:26:18.455Z,87.40
2023-03-07T05:28:22.538Z,87.10
2023-03-07T05:30:25.342Z,87.30
2023-03-07T05:32:28.280Z,87.20
2023-03-07T05:34:31.095Z,87.50
2023-03-07T05:36:33.812Z,87.20
2023-03-07T05:38:36.719Z,87.30
2023-03-07T05:40:40.146Z,87.60
2023-03-07T05:42:42.960Z,87.30
2023-03-07T05:44:47.209Z,87.10
2023-03-07T05:46:50.026Z,87.50
2023-03-07T05:48:52.764Z,87.70
2023-03-07T05:50:55.481Z,88.10
2023-03-07T05:52:58.245Z,87.80
2023-03-07T05:55:01.045Z,88.00
2023-03-07T05:57:03.780Z,88.20
2023-03-07T05:59:07.632Z,88.20
2023-03-07T06:01:11.701Z,87.80
2023-03-07T06:03:14.493Z,88.00
2023-03-07T06:05:17.475Z,87.90
2023-03-07T06:07:20.162Z,87.80
2023-03-07T06:09:23.572Z,87.70
2023-03-07T06:11:26.380Z,87.70
2023-03-07T06:13:31.007Z,87.50
2023-03-07T06:15:33.703Z,88.10
2023-03-07T06:17:38.267Z,87.40
2023-03-07T06:19:42.450Z,87.30
2023-03-07T06:21:45.557Z,87.40
2023-03-07T06:23:48.558Z,87.60
2023-03-07T06:25:51.270Z,87.80
2023-03-07T06:27:59.633Z,87.60
2023-03-07T06:30:02.812Z,87.40
2023-03-07T06:32:06.102Z,87.70
2023-03-07T06:34:10.273Z,87.50
2023-03-07T06:36:14.639Z,87.40
2023-03-07T06:38:18.620Z,87.20
2023-03-07T06:40:21.622Z,87.00
2023-03-07T06:42:24.328Z,87.00
2023-03-07T06:44:27.119Z,87.00
2023-03-07T06:46:29.855Z,87.20
2023-03-07T06:48:34.772Z,86.90
2023-03-07T06:50:39.131Z,87.10
2023-03-07T06:52:42.270Z,87.10
2023-03-07T06:54:45.037Z,86.80
2023-03-07T06:56:47.915Z,86.90
2023-03-07T06:58:50.643Z,87.10
2023-03-07T07:00:53.342Z,87.10
2023-03-07T07:02:56.261Z,87.20
2023-03-07T07:05:01.089Z,87.10
2023-03-07T07:07:07.062Z,87.20
2023-03-07T07:09:12.615Z,86.90
2023-03-07T07:11:15.489Z,87.30
2023-03-07T07:13:18.223Z,87.20
2023-03-07T07:15:21.088Z,87.10
2023-03-07T07:17:23.862Z,87.20
2023-03-07T07:19:27.041Z,87.60
2023-03-07T07:21:29.840Z,87.30
2023-03-07T07:23:33.947Z,87.30
2023-03-07T07:25:36.745Z,87.20
2023-03-07T07:27:39.465Z,87.20
2023-03-07T07:29:42.207Z,87.10
2023-03-07T07:31:45.219Z,87.20
2023-03-07T07:33:47.966Z,87.10
2023-03-07T07:35:50.778Z,87.40
2023-03-07T07:37:53.508Z,87.00
2023-03-07T07:39:57.521Z,87.30
2023-03-07T07:42:00.278Z,87.10
2023-03-07T07:44:03.069Z,87.30
2023-03-07T07:46:06.594Z,86.90
2023-03-07T07:48:09.324Z,87.50
2023-03-07T07:50:14.163Z,87.40
2023-03-07T07:52:16.881Z,87.10
2023-03-07T07:54:19.808Z,87.30
2023-03-07T07:56:23.956Z,87.40
2023-03-07T07:58:27.074Z,87.00
2023-03-07T08:00:29.885Z,86.90
2023-03-07T08:02:32.654Z,86.70
2023-03-07T08:04:35.563Z,87.10
2023-03-07T08:06:38.346Z,86.80
2023-03-07T08:08:41.094Z,87.40
2023-03-07T08:10:44.243Z,87.30
2023-03-07T08:12:51.446Z,87.10
2023-03-07T08:14:54.179Z,86.40
2023-03-07T08:16:56.914Z,86.60
2023-03-07T08:19:00.537Z,86.80
2023-03-07T08:21:03.300Z,87.40
2023-03-07T08:23:06.402Z,87.00
2023-03-07T08:25:21.644Z,86.50
2023-03-07T08:27:24.390Z,85.90
2023-03-07T08:29:29.089Z,86.10
2023-03-07T08:31:31.892Z,84.80
2023-03-07T08:33:34.768Z,85.70
2023-03-07T08:35:37.664Z,86.20
2023-03-07T08:37:40.542Z,85.50
2023-03-07T08:39:43.264Z,86.10
2023-03-07T08:41:46.027Z,87.10
2023-03-07T08:43:48.793Z,86.80
2023-03-07T08:45:53.024Z,86.50
2023-03-07T08:47:57.088Z,86.70
2023-03-07T08:50:00.001Z,86.60
2023-03-07T08:52:02.994Z,85.70
2023-03-07T08:54:05.796Z,85.70
2023-03-07T08:56:09.026Z,86.20
2023-03-07T08:58:12.444Z,86.10
2023-03-07T09:00:16.085Z,86.10
2023-03-07T09:02:20.184Z,86.10
2023-03-07T09:04:23.003Z,85.60
2023-03-07T09:06:25.925Z,85.70
2023-03-07T09:08:28.649Z,86.10
2023-03-07T09:10:31.370Z,85.60
2023-03-07T09:12:34.292Z,85.60
2023-03-07T09:14:37.020Z,85.50
2023-03-07T09:16:39.916Z,85.50
2023-03-07T09:18:44.159Z,85.90
2023-03-07T09:20:47.211Z,85.50
2023-03-07T09:22:51.575Z,85.80
2023-03-07T09:24:54.477Z,86.00
2023-03-07T09:26:57.527Z,86.00
2023-03-07T09:29:00.273Z,85.80
2023-03-07T09:31:08.137Z,85.30
2023-03-07T09:33:10.923Z,85.30
2023-03-07T09:35:14.990Z,86.00
2023-03-07T09:37:18.778Z,86.20
2023-03-07T09:39:21.558Z,85.90
2023-03-07T09:41:49.808Z,85.50
2023-03-07T09:43:59.001Z,85.70
2023-03-07T09:46:10.526Z,85.00
2023-03-07T09:48:41.274Z,85.50
2023-03-07T09:50:55.456Z,85.40
2023-03-07T09:53:03.900Z,86.50
2023-03-07T09:55:12.597Z,86.70
2023-03-07T09:57:19.902Z,85.70
2023-03-07T09:59:32.058Z,86.60
2023-03-07T10:01:38.929Z,86.80
2023-03-07T10:03:49.832Z,86.40
2023-03-07T10:05:57.008Z,85.70
2023-03-07T10:08:02.197Z,86.20
2023-03-07T10:10:11.707Z,85.30
2023-03-07T10:12:32.240Z,85.30
2023-03-07T10:14:50.169Z,85.90
2023-03-07T10:17:02.026Z,86.00
2023-03-07T10:19:14.038Z,85.30
2023-03-07T10:21:26.436Z,85.50
2023-03-07T10:23:41.102Z,83.50
2023-03-07T10:25:52.074Z,84.40
2023-03-07T10:28:01.927Z,84.60
2023-03-07T10:30:15.596Z,84.50
2023-03-07T10:32:31.753Z,83.80
2023-03-07T10:34:38.783Z,84.20
2023-03-07T10:36:46.518Z,83.80
2023-03-07T10:38:58.521Z,82.20
2023-03-07T10:41:06.527Z,82.90
2023-03-07T10:43:22.008Z,82.70
2023-03-07T10:45:24.821Z,83.40
2023-03-07T10:47:31.138Z,84.20
2023-03-07T10:49:38.566Z,82.40
2023-03-07T10:51:54.172Z,82.10
2023-03-07T10:53:57.721Z,81.70
2023-03-07T10:56:11.453Z,82.30
2023-03-07T10:58:24.675Z,80.60
2023-03-07T11:00:28.427Z,81.90
2023-03-07T11:02:36.608Z,81.40
2023-03-07T11:04:46.914Z,81.20
2023-03-07T11:06:56.776Z,81.20
2023-03-07T11:09:20.131Z,79.80
2023-03-07T11:11:26.085Z,79.70
2023-03-07T11:13:29.519Z,81.10
2023-03-07T11:15:32.514Z,81.30
2023-03-07T11:17:42.641Z,81.50
2023-03-07T11:19:47.586Z,82.30
2023-03-07T11:21:59.228Z,82.10
2023-03-07T11:24:05.601Z,82.50
2023-03-07T11:26:18.035Z,80.90
2023-03-07T11:28:29.942Z,82.10
2023-03-07T11:30:43.631Z,82.60
2023-03-07T11:33:02.799Z,82.50
2023-03-07T11:35:13.118Z,82.50
2023-03-07T11:37:27.875Z,82.90
2023-03-07T11:39:38.357Z,83.10
2023-03-07T11:41:43.172Z,82.50
2023-03-07T11:43:59.369Z,82.90
2023-03-07T11:46:08.198Z,83.20
2023-03-07T11:48:23.471Z,82.90
2023-03-07T11:50:28.820Z,82.70
2023-03-07T11:52:50.801Z,82.20
2023-03-07T11:55:05.085Z,82.50
2023-03-07T11:57:16.021Z,82.60
2023-03-07T11:59:43.779Z,83.00
2023-03-07T12:01:55.386Z,83.10
2023-03-07T12:04:30.664Z,83.30
2023-03-07T12:06:37.885Z,84.00
2023-03-07T12:08:58.270Z,83.20
2023-03-07T12:11:13.762Z,83.60
2023-03-07T12:13:31.633Z,83.60
2023-03-07T12:15:41.197Z,83.30
2023-03-07T12:17:54.182Z,83.50
2023-03-07T12:20:37.593Z,83.70
2023-03-07T12:22:49.414Z,83.30
2023-03-07T12:25:05.804Z,83.90
2023-03-07T12:27:15.202Z,83.50
2023-03-07T12:29:27.397Z,82.90
2023-03-07T12:31:35.540Z,82.50
2023-03-07T12:33:50.532Z,83.40
2023-03-07T12:35:56.777Z,83.50
2023-03-07T12:38:05.702Z,83.20
2023-03-07T12:40:19.586Z,84.20
2023-03-07T12:42:32.662Z,84.50
2023-03-07T12:44:41.045Z,85.40
2023-03-07T12:46:50.322Z,87.00
2023-03-07T12:48:57.350Z,88.30
2023-03-07T12:51:05.751Z,89.40
2023-03-07T12:53:16.357Z,89.20
2023-03-07T12:55:25.519Z,89.40
2023-03-07T12:57:30.983Z,89.60
2023-03-07T12:59:37.123Z,89.90
2023-03-07T13:01:42.664Z,90.00
2023-03-07T13:03:53.262Z,90.00
2023-03-07T13:05:56.359Z,90.10
2023-03-07T13:07:59.442Z,90.10
2023-03-07T13:10:07.465Z,90.00
2023-03-07T13:12:27.052Z,90.00
2023-03-07T13:14:40.426Z,90.10
2023-03-07T13:16:44.958Z,90.00
2023-03-07T13:18:48.070Z,90.00
2023-03-07T13:21:11.656Z,89.80
2023-03-07T13:23:25.049Z,90.00
2023-03-07T13:26:02.467Z,90.40
2023-03-07T13:28:46.401Z,90.20
2023-03-07T13:31:29.398Z,90.30
2023-03-07T13:33:32.356Z,90.50
2023-03-07T13:35:56.252Z,90.50
2023-03-07T13:37:59.721Z,90.60
2023-03-07T13:40:08.294Z,90.60
2023-03-07T13:42:46.133Z,90.30
2023-03-07T13:44:50.313Z,90.60
2023-03-07T13:46:58.685Z,90.80
2023-03-07T13:49:02.783Z,90.80
2023-03-07T13:51:09.292Z,90.30
2023-03-07T13:53:16.340Z,90.60
2023-03-07T13:55:28.060Z,90.60
2023-03-07T13:57:38.337Z,90.40
2023-03-07T13:59:41.763Z,90.50
2023-03-07T14:01:49.835Z,90.60
2023-03-07T14:03:55.281Z,90.70
2023-03-07T14:06:01.552Z,90.50
2023-03-07T14:08:05.038Z,90.40
2023-03-07T14:10:22.324Z,90.60
2023-03-07T14:12:38.573Z,90.70
2023-03-07T14:14:56.617Z,90.50
2023-03-07T14:17:15.264Z,90.40
2023-03-07T14:19:30.977Z,90.20
2023-03-07T14:21:45.357Z,90.50
2023-03-07T14:24:15.603Z,90.30
2023-03-07T14:26:21.329Z,90.10
2023-03-07T14:28:29.259Z,90.30
2023-03-07T14:30:34.518Z,90.60
2023-03-07T14:32:42.302Z,90.80
2023-03-07T14:34:49.053Z,90.30
2023-03-07T14:36:55.250Z,90.40
2023-03-07T14:39:02.149Z,90.60
2023-03-07T14:41:21.865Z,90.80
2023-03-07T14:43:37.131Z,90.60
2023-03-07T14:45:44.365Z,90.60
2023-03-07T14:48:05.087Z,90.70
2023-03-07T14:50:13.819Z,91.20
2023-03-07T14:52:30.085Z,91.20
2023-03-07T14:54:34.917Z,91.20
2023-03-07T14:56:39.352Z,91.40
2023-03-07T14:58:49.601Z,91.40
2023-03-07T15:01:00.280Z,91.50
2023-03-07T15:03:08.556Z,91.80
2023-03-07T15:05:16.773Z,91.70
2023-03-07T15:07:23.404Z,91.40
2023-03-07T15:09:27.025Z,91.30
2023-03-07T15:11:34.900Z,91.10
2023-03-07T15:13:42.512Z,91.10
2023-03-07T15:15:52.056Z,91.40
2023-03-07T15:17:57.136Z,91.30
2023-03-07T15:20:04.522Z,91.70
2023-03-07T15:22:12.612Z,92.00
2023-03-07T15:24:19.474Z,92.40
2023-03-07T15:26:26.293Z,92.40
2023-03-07T15:28:32.335Z,92.50
2023-03-07T15:30:36.979Z,92.90
2023-03-07T15:32:41.193Z,92.70
2023-03-07T15:34:44.031Z,92.50
2023-03-07T15:36:48.081Z,92.20
2023-03-07T15:38:52.730Z,92.10
2023-03-07T15:40:55.547Z,92.00
2023-03-07T15:42:59.702Z,92.00
2023-03-07T15:45:03.771Z,91.70
2023-03-07T15:47:15.126Z,91.90
2023-03-07T15:49:27.082Z,91.70
2023-03-07T15:51:36.614Z,91.60
2023-03-07T15:53:42.228Z,91.70
2023-03-07T15:55:55.800Z,91.80
2023-03-07T15:58:02.828Z,91.70
2023-03-07T16:00:08.940Z,92.00
2023-03-07T16:02:37.752Z,92.20
2023-03-07T16:04:42.737Z,92.60
2023-03-07T16:06:46.411Z,92.30
2023-03-07T16:08:50.674Z,92.10
2023-03-07T16:10:58.604Z,91.90
2023-03-07T16:13:02.827Z,92.00
2023-03-07T16:15:06.463Z,92.10
2023-03-07T16:17:17.922Z,92.30
2023-03-07T16:19:20.856Z,92.20
2023-03-07T16:21:23.672Z,92.10
2023-03-07T16:23:28.762Z,92.30
2023-03-07T16:25:38.279Z,92.00
2023-03-07T16:27:41.734Z,92.10
2023-03-07T16:29:44.978Z,92.40
2023-03-07T16:31:48.140Z,92.10
2023-03-07T16:33:50.884Z,92.30
2023-03-07T16:35:56.655Z,92.40
2023-03-07T16:37:59.444Z,92.20
2023-03-07T16:40:02.284Z,92.40
2023-03-07T16:42:07.476Z,91.80
2023-03-07T16:44:16.470Z,92.00
2023-03-07T16:46:19.993Z,92.20
2023-03-07T16:48:22.767Z,92.50
2023-03-07T16:50:27.178Z,92.50
2023-03-07T16:52:29.937Z,92.60
2023-03-07T16:54:32.780Z,92.20
2023-03-07T16:56:39.105Z,92.30
2023-03-07T16:58:44.440Z,92.30
2023-03-07T17:00:47.431Z,92.50
2023-03-07T17:02:52.211Z,92.80
2023-03-07T17:04:55.062Z,93.10
2023-03-07T17:07:04.440Z,93.50
2023-03-07T17:09:09.402Z,93.30
2023-03-07T17:11:19.024Z,93.30
2023-03-07T17:13:21.805Z,93.30
2023-03-07T17:15:30.612Z,92.90
2023-03-07T17:17:36.313Z,92.90
2023-03-07T17:19:39.212Z,93.40
2023-03-07T17:21:42.031Z,93.40
2023-03-07T17:23:45.662Z,93.10
2023-03-07T17:25:48.529Z,92.90
2023-03-07T17:27:54.429Z,92.80
2023-03-07T17:29:57.321Z,92.70
2023-03-07T17:32:01.705Z,92.30
2023-03-07T17:34:04.452Z,92.40
2023-03-07T17:36:10.219Z,92.50
2023-03-07T17:38:13.014Z,92.80
2023-03-07T17:40:15.970Z,93.00
2023-03-07T17:42:18.772Z,93.00
2023-03-07T17:44:21.461Z,92.80
2023-03-07T17:46:24.822Z,92.40
2023-03-07T17:48:28.935Z,92.60
2023-03-07T17:50:31.642Z,92.80
2023-03-07T17:52:34.595Z,92.70
2023-03-07T17:54:37.559Z,92.80
2023-03-07T17:56:40.640Z,92.50
2023-03-07T17:58:43.991Z,92.40
2023-03-07T18:00:46.695Z,92.40
2023-03-07T18:02:49.969Z,92.60
2023-03-07T18:04:54.023Z,92.30
2023-03-07T18:06:56.714Z,92.30
2023-03-07T18:08:59.411Z,92.20
2023-03-07T18:11:04.609Z,92.20
2023-03-07T18:13:09.805Z,92.40
2023-03-07T18:15:14.789Z,92.20
2023-03-07T18:17:17.979Z,92.10
2023-03-07T18:19:26.758Z,92.30
2023-03-07T18:21:31.399Z,92.60
2023-03-07T18:23:36.047Z,92.70
2023-03-07T18:25:38.777Z,93.40
2023-03-07T18:27:41.597Z,93.70
2023-03-07T18:29:44.973Z,93.80
2023-03-07T18:31:47.868Z,93.80
2023-03-07T18:33:52.324Z,95.30
2023-03-07T18:35:56.160Z,95.80
2023-03-07T18:38:01.016Z,95.30
2023-03-07T18:40:04.334Z,95.00
2023-03-07T18:42:07.207Z,95.20
2023-03-07T18:44:10.212Z,95.00
2023-03-07T18:46:14.989Z,94.40
2023-03-07T18:48:17.865Z,94.40
2023-03-07T18:50:20.737Z,94.00
2023-03-07T18:52:23.610Z,93.70
2023-03-07T18:54:27.655Z,94.30
2023-03-07T18:56:31.436Z,94.90
2023-03-07T18:58:34.645Z,94.90
2023-03-07T19:00:37.346Z,95.00
2023-03-07T19:02:40.224Z,94.80
2023-03-07T19:04:42.976Z,94.50
2023-03-07T19:06:47.604Z,94.20
2023-03-07T19:08:50.767Z,93.90
2023-03-07T19:10:54.784Z,93.80
2023-03-07T19:12:57.560Z,93.90
2023-03-07T19:15:00.270Z,94.00
2023-03-07T19:17:03.002Z,93.90
2023-03-07T19:19:05.794Z,94.00
2023-03-07T19:21:10.119Z,93.60
2023-03-07T19:23:22.323Z,93.10
2023-03-07T19:25:25.087Z,93.20
2023-03-07T19:27:31.983Z,93.80
2023-03-07T19:29:35.718Z,93.30
2023-03-07T19:31:38.660Z,93.10
2023-03-07T19:33:42.523Z,92.70
2023-03-07T19:35:46.155Z,93.00
2023-03-07T19:37:49.152Z,93.40
2023-03-07T19:39:52.926Z,93.20
2023-03-07T19:41:55.679Z,92.90
2023-03-07T19:44:00.914Z,93.00
2023-03-07T19:46:06.538Z,93.10
2023-03-07T19:48:09.270Z,93.20
2023-03-07T19:50:13.013Z,93.10
2023-03-07T19:52:16.420Z,92.60
2023-03-07T19:54:20.435Z,93.00
2023-03-07T19:56:24.955Z,93.00
2023-03-07T19:58:27.663Z,92.90
2023-03-07T20:00:31.840Z,93.00
2023-03-07T20:02:34.654Z,93.50
2023-03-07T20:04:37.429Z,93.30
2023-03-07T20:06:42.152Z,93.20
2023-03-07T20:08:45.175Z,93.00
2023-03-07T20:10:47.878Z,93.00
2023-03-07T20:12:52.944Z,93.00
2023-03-07T20:14:55.831Z,93.40
2023-03-07T20:17:00.006Z,93.40
2023-03-07T20:19:05.388Z,93.30
2023-03-07T20:21:10.634Z,93.10
2023-03-07T20:23:16.104Z,92.90
2023-03-07T20:25:19.313Z,93.10
2023-03-07T20:27:23.528Z,93.10
2023-03-07T20:29:26.722Z,93.40
2023-03-07T20:31:30.141Z,93.30
2023-03-07T20:33:34.284Z,93.80
2023-03-07T20:35:37.402Z,93.70
2023-03-07T20:37:40.556Z,93.90
2023-03-07T20:39:43.730Z,93.40
2023-03-07T20:41:46.472Z,93.60
2023-03-07T20:43:50.376Z,93.50
2023-03-07T20:45:53.426Z,93.70
2023-03-07T20:47:56.144Z,93.60
2023-03-07T20:50:00.320Z,93.60
2023-03-07T20:52:03.025Z,94.00
2023-03-07T20:54:07.845Z,94.00
2023-03-07T20:56:10.568Z,93.90
2023-03-07T20:58:13.510Z,93.80
2023-03-07T21:00:17.022Z,94.00
2023-03-07T21:02:19.770Z,94.10
2023-03-07T21:04:22.640Z,93.60
2023-03-07T21:06:26.682Z,93.40
2023-03-07T21:08:31.229Z,92.90
2023-03-07T21:10:34.032Z,93.40
2023-03-07T21:12:36.989Z,93.70
2023-03-07T21:14:39.843Z,93.90
2023-03-07T21:16:43.109Z,93.50
2023-03-07T21:18:46.463Z,93.40
2023-03-07T21:20:49.259Z,93.30
2023-03-07T21:22:53.450Z,93.30
2023-03-07T21:24:56.267Z,93.10
2023-03-07T21:26:59.456Z,93.10
2023-03-07T21:29:03.733Z,93.10
2023-03-07T21:31:09.067Z,92.80
2023-03-07T21:33:11.822Z,93.00
2023-03-07T21:35:14.622Z,92.90
2023-03-07T21:37:17.402Z,93.20
2023-03-07T21:39:21.516Z,93.30
2023-03-07T21:41:25.267Z,92.90
2023-03-07T21:43:28.204Z,92.50
2023-03-07T21:45:33.720Z,92.50
2023-03-07T21:47:36.483Z,92.80
2023-03-07T21:49:39.254Z,92.80
2023-03-07T21:51:41.967Z,93.00
2023-03-07T21:53:44.689Z,93.40
2023-03-07T21:55:52.376Z,93.10
2023-03-07T21:57:55.108Z,92.70
2023-03-07T21:59:58.021Z,93.00
2023-03-07T22:02:00.814Z,93.20
2023-03-07T22:04:03.620Z,93.10
2023-03-07T22:06:07.708Z,93.20
2023-03-07T22:08:10.689Z,93.20
2023-03-07T22:10:13.418Z,93.20
2023-03-07T22:12:17.430Z,93.40
2023-03-07T22:14:20.254Z,93.60
2023-03-07T22:16:23.136Z,93.10
2023-03-07T22:18:26.481Z,93.10
2023-03-07T22:20:29.324Z,93.20
2023-03-07T22:22:32.098Z,92.90
2023-03-07T22:24:34.970Z,92.60
2023-03-07T22:26:38.334Z,92.70
2023-03-07T22:28:42.774Z,92.70
2023-03-07T22:30:45.608Z,92.40
2023-03-07T22:32:50.580Z,92.60
2023-03-07T22:34:53.373Z,92.40
2023-03-07T22:36:57.386Z,92.40
2023-03-07T22:39:00.142Z,92.70
2023-03-07T22:41:03.689Z,92.50
2023-03-07T22:43:06.498Z,92.20
2023-03-07T22:45:11.809Z,92.10
2023-03-07T22:47:14.558Z,92.10
2023-03-07T22:49:17.846Z,92.00
2023-03-07T22:51:20.965Z,91.90
2023-03-07T22:53:27.258Z,92.20
2023-03-07T22:55:30.055Z,91.90
2023-03-07T22:57:32.986Z,92.10
2023-03-07T22:59:35.787Z,91.70
2023-03-07T23:01:39.902Z,92.00
2023-03-07T23:03:42.976Z,91.90
2023-03-07T23:05:49.964Z,92.20
2023-03-07T23:07:52.693Z,91.90
2023-03-07T23:09:55.519Z,92.10
2023-03-07T23:11:58.566Z,92.30
2023-03-07T23:14:01.655Z,92.20
2023-03-07T23:16:08.117Z,92.30
2023-03-07T23:18:12.271Z,92.30
2023-03-07T23:20:15.278Z,92.00
2023-03-07T23:22:18.021Z,91.90
2023-03-07T23:24:20.823Z,91.90
2023-03-07T23:26:25.614Z,91.40
2023-03-07T23:28:28.402Z,91.80
2023-03-07T23:30:31.143Z,91.70
2023-03-07T23:32:34.064Z,91.70
2023-03-07T23:34:38.163Z,91.30
2023-03-07T23:36:39.952Z,91.50
2023-03-07T23:38:42.664Z,92.00
2023-03-07T23:40:45.639Z,92.00
2023-03-07T23:42:48.410Z,91.80
2023-03-07T23:44:51.177Z,92.10
2023-03-07T23:46:54.029Z,92.00
2023-03-07T23:48:57.430Z,91.80
2023-03-07T23:51:01.553Z,91.60
2023-03-07T23:53:04.337Z,91.90
2023-03-07T23:55:08.998Z,91.90
2023-03-07T23:57:11.716Z,91.80
2023-03-07T23:59:14.422Z,91.90
